Time,TemperatureF,DewpointF,PressureIn,WindDirection,WindDirectionDegrees,WindSpeedMPH,WindSpeedGustMPH,Humidity,HourlyPrecipIn,Conditions,Clouds,dailyrainin,SoftwareType,DateUTC
2013-03-26 00:02:00,44.8,42.6,29.85,NNW,334,0.0,0.0,92,0.00,,,0.00,meteohub,2013-03-26 07:02:00,
2013-03-26 00:07:00,44.4,42.3,29.85,NNW,334,0.0,0.0,92,0.00,,,0.00,meteohub,2013-03-26 07:07:00,
2013-03-26 00:12:00,44.2,42.1,29.85,NNW,334,0.0,0.0,92,0.00,,,0.00,meteohub,2013-03-26 07:12:00,
2013-03-26 00:17:00,44.1,41.9,29.85,NNW,334,0.0,0.0,92,0.00,,,0.00,meteohub,2013-03-26 07:17:00,
2013-03-26 00:22:00,44.1,42.1,29.85,NNW,334,0.0,0.0,93,0.00,,,0.00,meteohub,2013-03-26 07:22:00,
2013-03-26 00:27:00,44.1,42.4,29.85,NNW,334,0.0,0.0,94,0.00,,,0.00,meteohub,2013-03-26 07:27:00,
2013-03-26 00:32:00,43.7,41.7,29.85,NNW,334,0.0,0.0,93,0.00,,,0.00,meteohub,2013-03-26 07:32:00,
2013-03-26 00:37:00,43.5,41.7,29.85,NNW,334,0.0,0.0,93,0.00,,,0.00,meteohub,2013-03-26 07:37:00,
2013-03-26 00:42:00,43.3,41.5,29.85,NNW,334,0.0,0.0,93,0.00,,,0.00,meteohub,2013-03-26 07:42:00,
2013-03-26 00:47:00,43.2,41.4,29.85,NNW,334,0.0,0.0,93,0.00,,,0.00,meteohub,2013-03-26 07:47:00,
2013-03-26 00:52:00,42.8,41.0,29.85,NNW,334,0.0,0.0,93,0.00,,,0.00,meteohub,2013-03-26 07:52:00,
2013-03-26 00:57:00,42.6,40.8,29.85,NNW,334,0.0,0.0,93,0.00,,,0.00,meteohub,2013-03-26 07:57:00,
2013-03-26 01:02:00,42.4,40.6,29.85,NNW,335,0.0,0.0,93,0.00,,,0.00,meteohub,2013-03-26 08:02:00,
2013-03-26 01:07:00,42.3,40.5,29.85,NNW,334,0.0,0.0,93,0.00,,,0.00,meteohub,2013-03-26 08:07:00,
2013-03-26 01:12:00,42.1,40.3,29.85,NNW,334,0.0,0.0,93,0.00,,,0.00,meteohub,2013-03-26 08:12:00,
2013-03-26 01:17:00,41.7,39.9,29.85,NNW,334,0.0,0.0,93,0.00,,,0.00,meteohub,2013-03-26 08:17:00,
2013-03-26 01:22:00,41.5,39.9,29.85,NNW,334,0.0,0.0,94,0.00,,,0.00,meteohub,2013-03-26 08:22:00,
2013-03-26 01:27:00,41.5,39.9,29.85,NNW,334,0.0,0.0,94,0.00,,,0.00,meteohub,2013-03-26 08:27:00,
2013-03-26 01:32:00,41.5,39.9,29.85,NNW,334,0.0,0.0,94,0.00,,,0.00,meteohub,2013-03-26 08:32:00,
2013-03-26 01:37:00,41.5,40.3,29.85,NNW,334,0.0,0.0,95,0.00,,,0.00,meteohub,2013-03-26 08:37:00,
2013-03-26 01:42:00,41.5,40.3,29.85,NNW,334,0.0,0.0,95,0.00,,,0.00,meteohub,2013-03-26 08:42:00,
2013-03-26 01:47:00,41.7,40.6,29.85,NNW,334,0.0,0.0,96,0.00,,,0.00,meteohub,2013-03-26 08:47:00,
2013-03-26 01:52:00,42.1,41.0,29.85,NNW,334,0.0,0.0,96,0.00,,,0.00,meteohub,2013-03-26 08:52:00,
2013-03-26 01:57:00,42.3,41.2,29.85,NNW,334,0.0,0.0,96,0.00,,,0.00,meteohub,2013-03-26 08:57:00,
2013-03-26 02:02:00,42.4,41.4,29.85,NNW,334,0.0,0.0,96,0.00,,,0.00,meteohub,2013-03-26 09:02:00,
2013-03-26 02:07:00,42.8,42.1,29.85,NNW,334,0.0,0.0,97,0.00,,,0.00,meteohub,2013-03-26 09:07:00,
2013-03-26 02:12:00,43.2,42.4,29.84,NNW,334,0.0,0.0,97,0.00,,,0.00,meteohub,2013-03-26 09:12:00,
2013-03-26 02:17:00,43.3,42.6,29.84,NNW,334,0.0,0.0,97,0.00,,,0.00,meteohub,2013-03-26 09:17:00,
2013-03-26 02:22:00,43.7,43.0,29.84,NNW,334,0.0,0.0,97,0.00,,,0.00,meteohub,2013-03-26 09:22:00,
2013-03-26 02:27:00,43.9,43.2,29.84,NNW,334,0.0,0.0,97,0.00,,,0.00,meteohub,2013-03-26 09:27:00,
2013-03-26 02:32:00,43.9,43.2,29.84,NNW,334,0.0,0.0,97,0.00,,,0.00,meteohub,2013-03-26 09:32:00,
2013-03-26 02:37:00,44.1,43.3,29.84,NNW,335,0.0,0.0,97,0.00,,,0.00,meteohub,2013-03-26 09:37:00,
2013-03-26 02:42:00,44.1,43.3,29.84,NNW,334,0.0,0.0,97,0.00,,,0.00,meteohub,2013-03-26 09:42:00,
2013-03-26 02:47:00,44.2,43.2,29.84,NNW,334,0.0,0.0,96,0.00,,,0.00,meteohub,2013-03-26 09:47:00,
2013-03-26 02:52:00,44.2,43.2,29.84,NNW,334,0.0,0.0,96,0.00,,,0.00,meteohub,2013-03-26 09:52:00,
2013-03-26 02:57:00,44.2,43.2,29.84,NNW,334,0.0,0.0,96,0.00,,,0.00,meteohub,2013-03-26 09:57:00,
2013-03-26 03:02:00,44.4,43.3,29.84,NNW,334,0.0,0.0,96,0.00,,,0.00,meteohub,2013-03-26 10:02:00,
2013-03-26 03:07:00,44.4,43.3,29.84,NNW,334,0.0,0.0,96,0.00,,,0.00,meteohub,2013-03-26 10:07:00,
2013-03-26 03:12:00,44.4,43.3,29.83,NNW,334,0.0,0.0,96,0.00,,,0.00,meteohub,2013-03-26 10:12:00,
2013-03-26 03:17:00,44.6,43.5,29.83,NNW,334,0.0,0.0,96,0.00,,,0.00,meteohub,2013-03-26 10:17:00,
2013-03-26 03:22:00,44.6,43.5,29.83,NNW,334,0.0,0.0,96,0.00,,,0.00,meteohub,2013-03-26 10:22:00,
2013-03-26 03:27:00,44.8,43.7,29.83,NNW,334,0.0,0.0,96,0.00,,,0.00,meteohub,2013-03-26 10:27:00,
2013-03-26 03:32:00,44.8,43.7,29.83,NNW,334,0.0,0.0,96,0.00,,,0.00,meteohub,2013-03-26 10:32:00,
2013-03-26 03:37:00,44.8,43.7,29.83,NNW,334,0.0,0.0,96,0.00,,,0.00,meteohub,2013-03-26 10:37:00,
2013-03-26 03:42:00,44.8,43.7,29.83,NNW,334,1.0,0.0,96,0.00,,,0.00,meteohub,2013-03-26 10:42:00,
2013-03-26 03:47:00,44.6,43.3,29.83,NNW,334,0.0,1.0,95,0.00,,,0.00,meteohub,2013-03-26 10:47:00,
2013-03-26 03:52:00,44.6,43.3,29.83,NNW,334,0.0,5.0,95,0.00,,,0.00,meteohub,2013-03-26 10:52:00,
2013-03-26 03:57:00,44.4,43.2,29.83,NNW,334,0.0,5.0,95,0.00,,,0.00,meteohub,2013-03-26 10:57:00,
2013-03-26 04:03:00,44.4,43.2,29.83,NNW,334,0.0,2.0,95,0.00,,,0.00,meteohub,2013-03-26 11:03:00,
2013-03-26 04:08:00,44.2,42.6,29.83,NNW,334,0.0,2.0,94,0.00,,,0.00,meteohub,2013-03-26 11:08:00,
2013-03-26 04:13:00,44.2,42.6,29.83,NNW,334,0.0,1.0,94,0.00,,,0.00,meteohub,2013-03-26 11:13:00,
2013-03-26 04:18:00,44.1,42.4,29.83,NNW,334,0.0,1.0,94,0.00,,,0.00,meteohub,2013-03-26 11:18:00,
2013-03-26 04:23:00,43.9,42.3,29.83,NNW,334,0.0,0.0,94,0.00,,,0.00,meteohub,2013-03-26 11:23:00,
2013-03-26 04:28:00,43.5,41.9,29.82,NNW,334,0.0,0.0,94,0.00,,,0.00,meteohub,2013-03-26 11:28:00,
2013-03-26 04:33:00,43.3,41.5,29.82,NNW,334,0.0,0.0,93,0.00,,,0.00,meteohub,2013-03-26 11:33:00,
2013-03-26 04:38:00,43.0,41.2,29.82,NNW,334,0.0,0.0,93,0.00,,,0.00,meteohub,2013-03-26 11:38:00,
2013-03-26 04:43:00,42.6,40.8,29.83,NNW,334,0.0,0.0,93,0.00,,,0.00,meteohub,2013-03-26 11:43:00,
2013-03-26 04:48:00,42.3,40.6,29.83,NNW,334,0.0,0.0,94,0.00,,,0.00,meteohub,2013-03-26 11:48:00,
2013-03-26 04:53:00,42.1,40.5,29.83,NNW,334,0.0,0.0,94,0.00,,,0.00,meteohub,2013-03-26 11:53:00,
2013-03-26 04:58:00,41.9,40.3,29.83,NNW,334,0.0,0.0,94,0.00,,,0.00,meteohub,2013-03-26 11:58:00,
2013-03-26 05:03:00,41.7,40.5,29.83,NNW,334,0.0,0.0,95,0.00,,,0.00,meteohub,2013-03-26 12:03:00,
2013-03-26 05:08:00,41.5,40.3,29.83,NNW,334,0.0,0.0,95,0.00,,,0.00,meteohub,2013-03-26 12:08:00,
2013-03-26 05:13:00,41.5,40.3,29.84,NNW,334,0.0,0.0,95,0.00,,,0.00,meteohub,2013-03-26 12:13:00,
2013-03-26 05:18:00,41.4,40.1,29.84,NNW,334,0.0,0.0,95,0.00,,,0.00,meteohub,2013-03-26 12:18:00,
2013-03-26 05:23:00,41.5,40.3,29.84,NNW,334,0.0,0.0,95,0.00,,,0.00,meteohub,2013-03-26 12:23:00,
2013-03-26 05:28:00,41.4,40.1,29.84,NNW,334,0.0,0.0,95,0.00,,,0.00,meteohub,2013-03-26 12:28:00,
2013-03-26 05:33:00,41.2,39.9,29.84,NNW,334,0.0,0.0,95,0.00,,,0.00,meteohub,2013-03-26 12:33:00,
2013-03-26 05:38:00,40.8,39.6,29.84,NNW,334,0.0,0.0,95,0.00,,,0.00,meteohub,2013-03-26 12:38:00,
2013-03-26 05:43:00,40.6,39.4,29.84,NNW,334,0.0,0.0,95,0.00,,,0.00,meteohub,2013-03-26 12:43:00,
2013-03-26 05:48:00,40.5,39.2,29.84,NNW,334,0.0,0.0,95,0.00,,,0.00,meteohub,2013-03-26 12:48:00,
2013-03-26 05:53:00,40.5,39.2,29.84,NNW,334,0.0,0.0,95,0.00,,,0.00,meteohub,2013-03-26 12:53:00,
2013-03-26 05:58:00,40.3,39.0,29.84,NNW,334,0.0,0.0,95,0.00,,,0.00,meteohub,2013-03-26 12:58:00,
2013-03-26 06:03:00,40.3,39.0,29.84,NNW,334,0.0,0.0,95,0.00,,,0.00,meteohub,2013-03-26 13:03:00,
2013-03-26 06:08:00,39.9,38.7,29.84,NNW,334,0.0,0.0,95,0.00,,,0.00,meteohub,2013-03-26 13:08:00,
2013-03-26 06:13:00,40.3,39.2,29.84,NNW,334,0.0,0.0,96,0.00,,,0.00,meteohub,2013-03-26 13:13:00,
2013-03-26 06:18:00,40.1,39.0,29.84,NNW,334,0.0,0.0,96,0.00,,,0.00,meteohub,2013-03-26 13:18:00,
2013-03-26 06:23:00,40.3,39.2,29.84,NNW,334,0.0,0.0,96,0.00,,,0.00,meteohub,2013-03-26 13:23:00,
2013-03-26 06:28:00,40.5,39.4,29.84,NNW,334,0.0,0.0,96,0.00,,,0.00,meteohub,2013-03-26 13:28:00,
2013-03-26 06:33:00,40.6,39.9,29.84,NNW,334,0.0,0.0,97,0.00,,,0.00,meteohub,2013-03-26 13:33:00,
2013-03-26 06:38:00,40.8,40.1,29.84,NNW,334,0.0,0.0,97,0.00,,,0.00,meteohub,2013-03-26 13:38:00,
2013-03-26 06:43:00,40.8,40.1,29.84,NNW,334,0.0,0.0,97,0.00,,,0.00,meteohub,2013-03-26 13:43:00,
2013-03-26 06:48:00,41.0,40.3,29.84,NNW,334,0.0,0.0,97,0.00,,,0.00,meteohub,2013-03-26 13:48:00,
2013-03-26 06:53:00,41.2,40.5,29.84,NNW,334,0.0,0.0,97,0.00,,,0.00,meteohub,2013-03-26 13:53:00,
2013-03-26 06:58:00,41.2,40.5,29.85,NNW,334,0.0,0.0,97,0.00,,,0.00,meteohub,2013-03-26 13:58:00,
2013-03-26 07:03:00,41.2,40.5,29.85,NNW,334,0.0,0.0,97,0.00,,,0.00,meteohub,2013-03-26 14:03:00,
2013-03-26 07:08:00,41.2,40.5,29.85,NNW,334,0.0,0.0,97,0.00,,,0.00,meteohub,2013-03-26 14:08:00,
2013-03-26 07:13:00,41.4,40.6,29.85,NNW,334,0.0,0.0,97,0.00,,,0.00,meteohub,2013-03-26 14:13:00,
2013-03-26 07:18:00,41.4,40.6,29.85,NNW,334,0.0,0.0,97,0.00,,,0.00,meteohub,2013-03-26 14:18:00,
2013-03-26 07:23:00,41.5,40.8,29.85,NNW,334,0.0,0.0,97,0.00,,,0.00,meteohub,2013-03-26 14:23:00,
2013-03-26 07:28:00,41.5,40.8,29.85,NNW,334,0.0,0.0,97,0.00,,,0.00,meteohub,2013-03-26 14:28:00,
2013-03-26 07:34:00,41.7,41.0,29.85,NNW,334,0.0,0.0,97,0.00,,,0.00,meteohub,2013-03-26 14:34:00,
2013-03-26 07:39:00,41.7,41.0,29.85,NNW,334,0.0,0.0,97,0.00,,,0.00,meteohub,2013-03-26 14:39:00,
2013-03-26 07:44:00,42.1,41.4,29.85,NNW,334,0.0,0.0,97,0.00,,,0.00,meteohub,2013-03-26 14:44:00,
2013-03-26 07:49:00,42.1,41.4,29.85,NNW,334,0.0,0.0,97,0.00,,,0.00,meteohub,2013-03-26 14:49:00,
2013-03-26 07:54:00,42.3,41.5,29.85,NNW,334,0.0,0.0,97,0.00,,,0.00,meteohub,2013-03-26 14:54:00,
2013-03-26 07:59:00,42.3,41.5,29.86,NNW,334,0.0,0.0,97,0.00,,,0.00,meteohub,2013-03-26 14:59:00,
2013-03-26 08:04:00,42.4,41.7,29.86,NNW,334,0.0,0.0,97,0.00,,,0.00,meteohub,2013-03-26 15:04:00,
2013-03-26 08:09:00,42.6,41.9,29.86,NNW,334,0.0,0.0,97,0.00,,,0.00,meteohub,2013-03-26 15:09:00,
2013-03-26 08:14:00,42.8,42.1,29.86,NNW,334,0.0,0.0,97,0.00,,,0.00,meteohub,2013-03-26 15:14:00,
2013-03-26 08:19:00,43.0,42.3,29.86,NNW,334,0.0,0.0,97,0.00,,,0.00,meteohub,2013-03-26 15:19:00,
2013-03-26 08:24:00,43.3,42.6,29.86,NNW,334,0.0,0.0,97,0.00,,,0.00,meteohub,2013-03-26 15:24:00,
2013-03-26 08:29:00,43.5,42.8,29.86,NNW,334,0.0,3.0,97,0.00,,,0.00,meteohub,2013-03-26 15:29:00,
2013-03-26 08:34:00,44.1,43.3,29.86,NNW,334,1.0,3.0,97,0.00,,,0.00,meteohub,2013-03-26 15:34:00,
2013-03-26 08:39:00,44.2,43.5,29.86,NNW,334,2.0,3.0,97,0.00,,,0.00,meteohub,2013-03-26 15:39:00,
2013-03-26 08:44:00,44.4,43.3,29.86,NNW,334,0.0,3.0,96,0.00,,,0.00,meteohub,2013-03-26 15:44:00,
2013-03-26 08:49:00,44.6,43.5,29.86,NNW,334,0.0,3.0,96,0.00,,,0.00,meteohub,2013-03-26 15:49:00,
2013-03-26 08:54:00,45.0,43.9,29.86,NNW,334,0.0,3.0,96,0.00,,,0.00,meteohub,2013-03-26 15:54:00,
2013-03-26 08:59:00,45.5,44.4,29.86,NNW,334,0.0,2.0,96,0.00,,,0.00,meteohub,2013-03-26 15:59:00,
2013-03-26 09:04:00,46.0,44.4,29.86,NNW,334,0.0,3.0,94,0.00,,,0.00,meteohub,2013-03-26 16:04:00,
2013-03-26 09:09:00,46.8,44.8,29.86,NNW,334,1.0,3.0,93,0.00,,,0.00,meteohub,2013-03-26 16:09:00,
2013-03-26 09:14:00,47.5,44.8,29.86,NNW,334,0.0,2.0,90,0.00,,,0.00,meteohub,2013-03-26 16:14:00,
2013-03-26 09:19:00,47.7,44.6,29.86,NNW,334,2.0,3.0,89,0.00,,,0.00,meteohub,2013-03-26 16:19:00,
2013-03-26 09:24:00,48.0,45.0,29.86,NNW,334,0.0,3.0,89,0.00,,,0.00,meteohub,2013-03-26 16:24:00,
2013-03-26 09:29:00,48.7,45.3,29.86,NNW,334,0.0,3.0,88,0.00,,,0.00,meteohub,2013-03-26 16:29:00,
2013-03-26 09:34:00,49.8,45.9,29.86,NNW,334,1.0,3.0,86,0.00,,,0.00,meteohub,2013-03-26 16:34:00,
2013-03-26 09:39:00,50.7,46.4,29.86,NNW,334,2.0,3.0,85,0.00,,,0.00,meteohub,2013-03-26 16:39:00,
2013-03-26 09:44:00,51.4,46.8,29.86,NNW,334,0.0,3.0,84,0.00,,,0.00,meteohub,2013-03-26 16:44:00,
2013-03-26 09:49:00,52.2,47.1,29.86,NNW,334,0.0,3.0,83,0.00,,,0.00,meteohub,2013-03-26 16:49:00,
2013-03-26 09:54:00,52.5,46.6,29.85,NNW,334,0.0,3.0,80,0.00,,,0.00,meteohub,2013-03-26 16:54:00,
2013-03-26 09:59:00,53.2,47.5,29.85,NNW,334,0.0,3.0,81,0.00,,,0.00,meteohub,2013-03-26 16:59:00,
2013-03-26 10:04:00,54.0,46.9,29.85,NNW,334,1.0,3.0,77,0.00,,,0.00,meteohub,2013-03-26 17:04:00,
2013-03-26 10:09:00,54.0,46.2,29.85,NNW,334,0.0,3.0,75,0.00,,,0.00,meteohub,2013-03-26 17:09:00,
2013-03-26 10:14:00,54.0,46.2,29.85,NNW,334,0.0,3.0,75,0.00,,,0.00,meteohub,2013-03-26 17:14:00,
2013-03-26 10:19:00,54.1,46.4,29.85,NNW,334,1.0,3.0,75,0.00,,,0.00,meteohub,2013-03-26 17:19:00,
2013-03-26 10:24:00,54.5,46.0,29.85,NNW,334,0.0,3.0,73,0.00,,,0.00,meteohub,2013-03-26 17:24:00,
2013-03-26 10:29:00,55.0,46.6,29.85,NNW,334,0.0,3.0,73,0.00,,,0.00,meteohub,2013-03-26 17:29:00,
2013-03-26 10:34:00,55.8,46.6,29.85,NNW,334,0.0,3.0,71,0.00,,,0.00,meteohub,2013-03-26 17:34:00,
2013-03-26 10:39:00,55.6,46.0,29.86,North,5,2.0,3.0,70,0.00,,,0.00,meteohub,2013-03-26 17:39:00,
2013-03-26 10:44:00,55.0,46.6,29.86,North,5,1.0,7.0,73,0.00,,,0.00,meteohub,2013-03-26 17:44:00,
2013-03-26 10:49:00,55.6,47.1,29.86,North,5,0.0,7.0,73,0.00,,,0.00,meteohub,2013-03-26 17:49:00,
2013-03-26 10:54:00,55.9,46.2,29.86,North,5,4.0,7.0,70,0.00,,,0.00,meteohub,2013-03-26 17:54:00,
2013-03-26 10:59:00,55.6,46.4,29.86,North,9,3.0,6.0,71,0.00,,,0.00,meteohub,2013-03-26 17:59:00,
2013-03-26 11:04:00,55.4,46.9,29.86,North,9,2.0,6.0,73,0.00,,,0.00,meteohub,2013-03-26 18:04:00,
2013-03-26 11:09:00,55.6,46.4,29.86,North,11,0.0,6.0,71,0.00,,,0.00,meteohub,2013-03-26 18:09:00,
2013-03-26 11:14:00,55.8,46.0,29.86,North,11,0.0,6.0,70,0.00,,,0.00,meteohub,2013-03-26 18:14:00,
2013-03-26 11:19:00,56.3,46.9,29.86,North,11,0.0,6.0,71,0.00,,,0.00,meteohub,2013-03-26 18:19:00,
2013-03-26 11:24:00,56.8,47.8,29.85,North,9,0.0,6.0,72,0.00,,,0.00,meteohub,2013-03-26 18:24:00,
2013-03-26 11:29:00,57.4,47.7,29.85,North,5,2.0,4.0,70,0.00,,,0.00,meteohub,2013-03-26 18:29:00,
2013-03-26 11:34:00,57.4,47.3,29.85,North,5,1.0,4.0,69,0.00,,,0.00,meteohub,2013-03-26 18:34:00,
2013-03-26 11:39:00,57.7,48.4,29.85,North,5,0.0,4.0,71,0.00,,,0.00,meteohub,2013-03-26 18:39:00,
2013-03-26 11:45:00,58.5,48.0,29.85,North,5,4.0,4.0,68,0.00,,,0.00,meteohub,2013-03-26 18:45:00,
2013-03-26 11:50:00,58.8,47.8,29.85,North,9,0.0,3.0,67,0.00,,,0.00,meteohub,2013-03-26 18:50:00,
2013-03-26 11:55:00,59.4,48.7,29.85,North,9,0.0,4.0,68,0.00,,,0.00,meteohub,2013-03-26 18:55:00,
2013-03-26 12:00:00,59.9,48.0,29.85,North,10,0.0,4.0,65,0.00,,,0.00,meteohub,2013-03-26 19:00:00,
2013-03-26 12:05:00,60.3,49.3,29.85,North,355,0.0,4.0,67,0.00,,,0.00,meteohub,2013-03-26 19:05:00,
2013-03-26 12:10:00,60.4,47.8,29.85,North,355,0.0,4.0,63,0.00,,,0.00,meteohub,2013-03-26 19:10:00,
2013-03-26 12:15:00,60.6,48.0,29.85,North,355,1.0,4.0,63,0.00,,,0.00,meteohub,2013-03-26 19:15:00,
2013-03-26 12:20:00,60.6,49.3,29.85,North,5,0.0,5.0,66,0.00,,,0.00,meteohub,2013-03-26 19:20:00,
2013-03-26 12:25:00,61.2,49.3,29.85,North,5,0.0,5.0,65,0.00,,,0.00,meteohub,2013-03-26 19:25:00,
2013-03-26 12:30:00,61.7,50.2,29.85,North,0,1.0,5.0,66,0.00,,,0.00,meteohub,2013-03-26 19:30:00,
2013-03-26 12:35:00,62.1,48.9,29.85,North,0,0.0,3.0,62,0.00,,,0.00,meteohub,2013-03-26 19:35:00,
2013-03-26 12:40:00,62.1,49.3,29.85,West,268,0.0,7.0,63,0.00,,,0.00,meteohub,2013-03-26 19:40:00,
2013-03-26 12:45:00,62.2,48.6,29.85,West,268,0.0,7.0,61,0.00,,,0.00,meteohub,2013-03-26 19:45:00,
2013-03-26 12:50:00,62.4,49.3,29.85,West,269,0.0,7.0,62,0.00,,,0.00,meteohub,2013-03-26 19:50:00,
2013-03-26 12:55:00,62.6,49.5,29.85,West,269,0.0,4.0,62,0.00,,,0.00,meteohub,2013-03-26 19:55:00,
2013-03-26 13:00:00,62.8,49.1,29.85,West,269,0.0,4.0,61,0.00,,,0.00,meteohub,2013-03-26 20:00:00,
2013-03-26 13:05:00,63.1,50.4,29.85,West,269,3.0,4.0,63,0.00,,,0.00,meteohub,2013-03-26 20:05:00,
2013-03-26 13:10:00,63.1,49.1,29.84,WNW,296,1.0,4.0,60,0.00,,,0.00,meteohub,2013-03-26 20:10:00,
2013-03-26 13:15:00,63.0,48.9,29.84,NW,322,0.0,6.0,60,0.00,,,0.00,meteohub,2013-03-26 20:15:00,
2013-03-26 13:20:00,63.3,49.6,29.84,NW,321,0.0,6.0,61,0.00,,,0.00,meteohub,2013-03-26 20:20:00,
2013-03-26 13:25:00,63.7,49.5,29.84,NW,321,0.0,6.0,60,0.00,,,0.00,meteohub,2013-03-26 20:25:00,
2013-03-26 13:30:00,63.5,49.3,29.84,NNW,329,1.0,4.0,60,0.00,,,0.00,meteohub,2013-03-26 20:30:00,
2013-03-26 13:35:00,63.7,50.0,29.84,NNW,329,0.0,5.0,61,0.00,,,0.00,meteohub,2013-03-26 20:35:00,
2013-03-26 13:40:00,64.0,50.4,29.83,NNW,329,0.0,5.0,61,0.00,,,0.00,meteohub,2013-03-26 20:40:00,
2013-03-26 13:45:00,64.4,50.2,29.83,NW,323,0.0,4.0,60,0.00,,,0.00,meteohub,2013-03-26 20:45:00,
2013-03-26 13:50:00,64.2,49.1,29.83,NW,311,2.0,7.0,58,0.00,,,0.00,meteohub,2013-03-26 20:50:00,
2013-03-26 13:55:00,64.0,48.6,29.83,NW,314,0.0,7.0,57,0.00,,,0.00,meteohub,2013-03-26 20:55:00,
2013-03-26 14:00:00,64.0,49.5,29.83,SW,236,1.0,7.0,59,0.00,,,0.00,meteohub,2013-03-26 21:00:00,
2013-03-26 14:05:00,64.0,49.8,29.83,SW,236,0.0,7.0,60,0.00,,,0.00,meteohub,2013-03-26 21:05:00,
2013-03-26 14:10:00,64.0,49.5,29.83,NW,310,1.0,7.0,59,0.00,,,0.00,meteohub,2013-03-26 21:10:00,
2013-03-26 14:15:00,63.9,51.1,29.83,NW,315,0.0,5.0,63,0.00,,,0.00,meteohub,2013-03-26 21:15:00,
2013-03-26 14:20:00,63.7,51.3,29.83,West,279,1.0,7.0,64,0.00,,,0.00,meteohub,2013-03-26 21:20:00,
2013-03-26 14:25:00,63.1,50.4,29.82,NW,326,0.0,8.0,63,0.00,,,0.00,meteohub,2013-03-26 21:25:00,
2013-03-26 14:30:00,63.0,50.5,29.82,West,260,3.0,9.0,64,0.00,,,0.00,meteohub,2013-03-26 21:30:00,
2013-03-26 14:35:00,62.6,50.7,29.82,WSW,243,1.0,10.0,65,0.00,,,0.00,meteohub,2013-03-26 21:35:00,
2013-03-26 14:40:00,62.2,50.0,29.82,WNW,288,6.0,10.0,64,0.00,,,0.00,meteohub,2013-03-26 21:40:00,
2013-03-26 14:45:00,61.9,49.6,29.82,West,277,0.0,10.0,64,0.00,,,0.00,meteohub,2013-03-26 21:45:00,
2013-03-26 14:50:00,61.9,49.6,29.82,West,275,6.0,7.0,64,0.00,,,0.00,meteohub,2013-03-26 21:50:00,
2013-03-26 14:55:00,61.9,49.6,29.81,WNW,288,0.0,9.0,64,0.00,,,0.00,meteohub,2013-03-26 21:55:00,
2013-03-26 15:00:00,61.9,49.6,29.81,WNW,288,1.0,9.0,64,0.00,,,0.00,meteohub,2013-03-26 22:00:00,
2013-03-26 15:05:00,61.9,48.7,29.81,WNW,290,2.0,9.0,62,0.00,,,0.00,meteohub,2013-03-26 22:05:00,
2013-03-26 15:10:00,61.9,48.2,29.81,West,277,3.0,6.0,61,0.00,,,0.00,meteohub,2013-03-26 22:10:00,
2013-03-26 15:15:00,61.7,48.6,29.81,WSW,252,0.0,6.0,62,0.00,,,0.00,meteohub,2013-03-26 22:15:00,
2013-03-26 15:20:00,61.7,47.7,29.81,West,263,2.0,7.0,60,0.00,,,0.00,meteohub,2013-03-26 22:20:00,
2013-03-26 15:26:00,61.5,47.1,29.81,West,281,3.0,7.0,59,0.00,,,0.00,meteohub,2013-03-26 22:26:00,
2013-03-26 15:31:00,61.5,47.5,29.81,West,281,3.0,6.0,60,0.00,,,0.00,meteohub,2013-03-26 22:31:00,
2013-03-26 15:36:00,61.5,47.1,29.81,WNW,285,0.0,7.0,59,0.00,,,0.00,meteohub,2013-03-26 22:36:00,
2013-03-26 15:41:00,61.3,47.3,29.82,West,275,3.0,7.0,60,0.00,,,0.00,meteohub,2013-03-26 22:41:00,
2013-03-26 15:46:00,61.5,48.7,29.82,West,275,1.0,7.0,63,0.00,,,0.00,meteohub,2013-03-26 22:46:00,
2013-03-26 15:51:00,61.7,47.7,29.82,WSW,250,2.0,12.0,60,0.00,,,0.00,meteohub,2013-03-26 22:51:00,
2013-03-26 15:56:00,61.5,47.5,29.81,West,264,0.0,12.0,60,0.00,,,0.00,meteohub,2013-03-26 22:56:00,
2013-03-26 16:01:00,61.3,47.8,29.81,WNW,283,4.0,12.0,61,0.00,,,0.00,meteohub,2013-03-26 23:01:00,
2013-03-26 16:06:00,61.2,48.0,29.81,WNW,285,0.0,7.0,62,0.00,,,0.00,meteohub,2013-03-26 23:06:00,
2013-03-26 16:11:00,61.2,47.7,29.81,WNW,285,0.0,5.0,61,0.00,,,0.00,meteohub,2013-03-26 23:11:00,
2013-03-26 16:16:00,61.0,47.8,29.81,West,275,0.0,6.0,62,0.00,,,0.00,meteohub,2013-03-26 23:16:00,
2013-03-26 16:21:00,60.8,47.7,29.81,West,275,0.0,6.0,62,0.00,,,0.00,meteohub,2013-03-26 23:21:00,
2013-03-26 16:27:00,60.6,47.1,29.81,West,275,0.0,6.0,61,0.00,,,0.00,meteohub,2013-03-26 23:27:00,
2013-03-26 16:32:00,60.3,46.8,29.81,NNW,331,0.0,6.0,61,0.00,,,0.00,meteohub,2013-03-26 23:32:00,
2013-03-26 16:37:00,60.3,46.8,29.81,NNW,330,4.0,6.0,61,0.00,,,0.00,meteohub,2013-03-26 23:37:00,
2013-03-26 16:42:00,60.3,46.8,29.81,NW,305,0.0,6.0,61,0.00,,,0.00,meteohub,2013-03-26 23:42:00,
2013-03-26 16:47:00,60.3,47.1,29.81,WNW,303,1.0,6.0,62,0.00,,,0.00,meteohub,2013-03-26 23:47:00,
2013-03-26 16:52:00,60.1,46.9,29.81,WNW,298,3.0,6.0,62,0.00,,,0.00,meteohub,2013-03-26 23:52:00,
2013-03-26 16:57:00,59.9,46.8,29.81,WNW,299,3.0,7.0,62,0.00,,,0.00,meteohub,2013-03-26 23:57:00,
2013-03-26 17:02:00,59.7,47.1,29.81,NW,306,0.0,7.0,63,0.00,,,0.00,meteohub,2013-03-27 00:02:00,
2013-03-26 17:07:00,59.5,48.2,29.81,NW,306,1.0,7.0,66,0.00,,,0.00,meteohub,2013-03-27 00:07:00,
2013-03-26 17:12:00,59.5,47.8,29.80,NW,305,2.0,5.0,65,0.00,,,0.00,meteohub,2013-03-27 00:12:00,
2013-03-26 17:17:00,59.2,47.5,29.80,NW,305,0.0,5.0,65,0.00,,,0.00,meteohub,2013-03-27 00:17:00,
2013-03-26 17:22:00,59.0,47.3,29.80,NW,306,2.0,5.0,65,0.00,,,0.00,meteohub,2013-03-27 00:22:00,
2013-03-26 17:27:00,58.8,47.5,29.81,NW,308,0.0,5.0,66,0.00,,,0.00,meteohub,2013-03-27 00:27:00,
2013-03-26 17:32:00,58.6,46.9,29.81,NW,308,0.0,5.0,65,0.00,,,0.00,meteohub,2013-03-27 00:32:00,
2013-03-26 17:37:00,58.3,46.6,29.81,NW,308,2.0,5.0,65,0.00,,,0.00,meteohub,2013-03-27 00:37:00,
2013-03-26 17:42:00,58.1,46.8,29.81,NW,307,0.0,4.0,66,0.00,,,0.00,meteohub,2013-03-27 00:42:00,
2013-03-26 17:47:00,57.7,46.9,29.81,WNW,297,0.0,5.0,67,0.00,,,0.00,meteohub,2013-03-27 00:47:00,
2013-03-26 17:52:00,57.6,47.1,29.81,WNW,297,0.0,6.0,68,0.00,,,0.00,meteohub,2013-03-27 00:52:00,
2013-03-26 17:57:00,57.2,47.1,29.81,NW,313,0.0,6.0,69,0.00,,,0.00,meteohub,2013-03-27 00:57:00,
2013-03-26 18:02:00,57.0,47.3,29.81,NW,313,0.0,6.0,70,0.00,,,0.00,meteohub,2013-03-27 01:02:00,
2013-03-26 18:07:00,56.8,46.8,29.81,NW,313,0.0,6.0,69,0.00,,,0.00,meteohub,2013-03-27 01:07:00,
2013-03-26 18:12:00,56.5,47.1,29.81,NW,313,0.0,4.0,71,0.00,,,0.00,meteohub,2013-03-27 01:12:00,
2013-03-26 18:17:00,56.1,46.4,29.81,NW,313,0.0,2.0,70,0.00,,,0.00,meteohub,2013-03-27 01:17:00,
2013-03-26 18:23:00,55.8,46.0,29.81,NW,313,0.0,2.0,70,0.00,,,0.00,meteohub,2013-03-27 01:23:00,
2013-03-26 18:28:00,55.6,46.4,29.81,NW,313,0.0,1.0,71,0.00,,,0.00,meteohub,2013-03-27 01:28:00,
2013-03-26 18:33:00,55.2,46.4,29.81,NW,313,1.0,2.0,72,0.00,,,0.00,meteohub,2013-03-27 01:33:00,
2013-03-26 18:38:00,55.0,46.6,29.81,NW,313,0.0,3.0,73,0.00,,,0.00,meteohub,2013-03-27 01:38:00,
2013-03-26 18:43:00,55.0,46.6,29.81,NW,313,0.0,5.0,73,0.00,,,0.00,meteohub,2013-03-27 01:43:00,
2013-03-26 18:48:00,54.9,46.4,29.81,NW,313,1.0,5.0,73,0.00,,,0.00,meteohub,2013-03-27 01:48:00,
2013-03-26 18:53:00,54.9,46.4,29.81,NW,313,0.0,5.0,73,0.00,,,0.00,meteohub,2013-03-27 01:53:00,
2013-03-26 18:58:00,54.7,46.6,29.81,NW,313,0.0,2.0,74,0.00,,,0.00,meteohub,2013-03-27 01:58:00,
2013-03-26 19:03:00,54.3,45.5,29.81,NW,313,0.0,2.0,72,0.00,,,0.00,meteohub,2013-03-27 02:03:00,
2013-03-26 19:08:00,54.1,46.0,29.81,NW,313,0.0,3.0,74,0.00,,,0.00,meteohub,2013-03-27 02:08:00,
2013-03-26 19:13:00,54.0,45.9,29.82,NW,313,0.0,3.0,74,0.00,,,0.00,meteohub,2013-03-27 02:13:00,
2013-03-26 19:18:00,53.8,46.0,29.82,NW,313,0.0,3.0,75,0.00,,,0.00,meteohub,2013-03-27 02:18:00,
2013-03-26 19:23:00,53.4,45.7,29.82,NW,313,0.0,1.0,75,0.00,,,0.00,meteohub,2013-03-27 02:23:00,
2013-03-26 19:28:00,53.1,45.3,29.82,NNW,327,1.0,1.0,75,0.00,,,0.00,meteohub,2013-03-27 02:28:00,
2013-03-26 19:33:00,52.5,45.1,29.82,NNW,327,1.0,6.0,76,0.00,,,0.00,meteohub,2013-03-27 02:33:00,
2013-03-26 19:38:00,52.2,45.1,29.82,North,5,5.0,6.0,77,0.00,,,0.00,meteohub,2013-03-27 02:38:00,
2013-03-26 19:43:00,51.8,45.1,29.82,North,0,2.0,7.0,78,0.00,,,0.00,meteohub,2013-03-27 02:43:00,
2013-03-26 19:48:00,51.6,45.3,29.82,North,0,0.0,7.0,79,0.00,,,0.00,meteohub,2013-03-27 02:48:00,
2013-03-26 19:53:00,51.4,45.1,29.82,North,0,0.0,7.0,79,0.00,,,0.00,meteohub,2013-03-27 02:53:00,
2013-03-26 19:58:00,51.3,45.3,29.82,North,0,0.0,4.0,80,0.00,,,0.00,meteohub,2013-03-27 02:58:00,
2013-03-26 20:03:00,51.1,45.1,29.82,North,0,0.0,4.0,80,0.00,,,0.00,meteohub,2013-03-27 03:03:00,
2013-03-26 20:08:00,50.7,45.1,29.82,North,0,0.0,4.0,81,0.00,,,0.00,meteohub,2013-03-27 03:08:00,
2013-03-26 20:13:00,50.5,45.0,29.82,North,0,0.0,1.0,81,0.00,,,0.00,meteohub,2013-03-27 03:13:00,
2013-03-26 20:18:00,50.2,45.0,29.82,North,0,0.0,0.0,82,0.00,,,0.00,meteohub,2013-03-27 03:18:00,
2013-03-26 20:23:00,49.8,44.6,29.82,North,0,0.0,3.0,82,0.00,,,0.00,meteohub,2013-03-27 03:23:00,
2013-03-26 20:28:00,49.6,44.8,29.82,North,0,0.0,3.0,83,0.00,,,0.00,meteohub,2013-03-27 03:28:00,
2013-03-26 20:33:00,49.3,44.4,29.82,North,0,0.0,3.0,83,0.00,,,0.00,meteohub,2013-03-27 03:33:00,
2013-03-26 20:38:00,49.1,44.2,29.82,North,0,0.0,2.0,83,0.00,,,0.00,meteohub,2013-03-27 03:38:00,
2013-03-26 20:43:00,48.7,43.9,29.83,North,0,0.0,1.0,83,0.00,,,0.00,meteohub,2013-03-27 03:43:00,
2013-03-26 20:48:00,48.6,43.9,29.83,North,0,0.0,0.0,84,0.00,,,0.00,meteohub,2013-03-27 03:48:00,
2013-03-26 20:53:00,48.0,43.7,29.83,North,0,0.0,0.0,85,0.00,,,0.00,meteohub,2013-03-27 03:53:00,
2013-03-26 20:58:00,47.8,43.5,29.84,North,0,0.0,0.0,85,0.00,,,0.00,meteohub,2013-03-27 03:58:00,
2013-03-26 21:00:00,47.7,43.3,29.84,North,0,0.0,0.0,85,0.00,,,0.00,meteohub,2013-03-27 04:00:00,
2013-03-26 21:05:00,47.5,43.5,29.84,North,0,0.0,2.0,86,0.00,,,0.00,meteohub,2013-03-27 04:05:00,
2013-03-26 21:10:00,47.3,43.7,29.84,North,0,0.0,2.0,87,0.00,,,0.00,meteohub,2013-03-27 04:10:00,
2013-03-26 21:15:00,47.1,43.5,29.84,North,0,0.0,0.0,87,0.00,,,0.00,meteohub,2013-03-27 04:15:00,
2013-03-26 21:20:00,46.9,43.3,29.84,North,0,0.0,0.0,87,0.00,,,0.00,meteohub,2013-03-27 04:20:00,
2013-03-26 21:25:00,46.9,43.3,29.84,North,0,0.0,0.0,87,0.00,,,0.00,meteohub,2013-03-27 04:25:00,
2013-03-26 21:30:00,46.8,43.3,29.84,North,0,0.0,0.0,88,0.00,,,0.00,meteohub,2013-03-27 04:30:00,
2013-03-26 21:35:00,46.6,43.2,29.84,North,0,0.0,0.0,88,0.00,,,0.00,meteohub,2013-03-27 04:35:00,
2013-03-26 21:40:00,46.6,43.2,29.84,North,0,0.0,0.0,88,0.00,,,0.00,meteohub,2013-03-27 04:40:00,
2013-03-26 21:45:00,46.2,42.8,29.84,North,0,0.0,0.0,88,0.00,,,0.00,meteohub,2013-03-27 04:45:00,
2013-03-26 21:50:00,46.2,43.2,29.84,North,0,0.0,0.0,89,0.00,,,0.00,meteohub,2013-03-27 04:50:00,
2013-03-26 21:55:00,46.0,43.0,29.84,North,0,0.0,0.0,89,0.00,,,0.00,meteohub,2013-03-27 04:55:00,
2013-03-26 22:00:00,45.9,43.2,29.84,North,0,0.0,0.0,90,0.00,,,0.00,meteohub,2013-03-27 05:00:00,
2013-03-26 22:05:00,45.7,43.0,29.84,North,0,0.0,0.0,90,0.00,,,0.00,meteohub,2013-03-27 05:05:00,
2013-03-26 22:10:00,45.5,42.8,29.85,North,0,0.0,0.0,90,0.00,,,0.00,meteohub,2013-03-27 05:10:00,
2013-03-26 22:15:00,45.3,42.6,29.85,North,0,0.0,0.0,90,0.00,,,0.00,meteohub,2013-03-27 05:15:00,
2013-03-26 22:20:00,45.1,42.4,29.85,North,0,0.0,0.0,90,0.00,,,0.00,meteohub,2013-03-27 05:20:00,
2013-03-26 22:25:00,45.0,42.3,29.85,North,0,0.0,0.0,90,0.00,,,0.00,meteohub,2013-03-27 05:25:00,
2013-03-26 22:30:00,44.8,42.3,29.85,North,0,0.0,0.0,91,0.00,,,0.00,meteohub,2013-03-27 05:30:00,
2013-03-26 22:35:00,44.4,41.9,29.85,North,0,0.0,0.0,91,0.00,,,0.00,meteohub,2013-03-27 05:35:00,
2013-03-26 22:40:00,44.4,41.9,29.84,North,0,0.0,0.0,91,0.00,,,0.00,meteohub,2013-03-27 05:40:00,
2013-03-26 22:45:00,44.2,42.1,29.84,North,0,0.0,0.0,92,0.00,,,0.00,meteohub,2013-03-27 05:45:00,
2013-03-26 22:50:00,44.1,41.9,29.84,North,0,0.0,0.0,92,0.00,,,0.00,meteohub,2013-03-27 05:50:00,
2013-03-26 22:55:00,44.1,41.9,29.84,North,0,0.0,0.0,92,0.00,,,0.00,meteohub,2013-03-27 05:55:00,
2013-03-26 23:00:00,44.1,41.9,29.84,North,0,0.0,0.0,92,0.00,,,0.00,meteohub,2013-03-27 06:00:00,
2013-03-26 23:05:00,43.9,41.9,29.84,North,0,0.0,0.0,93,0.00,,,0.00,meteohub,2013-03-27 06:05:00,
2013-03-26 23:10:00,43.7,41.5,29.84,North,0,0.0,0.0,92,0.00,,,0.00,meteohub,2013-03-27 06:10:00,
2013-03-26 23:16:00,43.5,41.7,29.84,North,0,0.0,0.0,93,0.00,,,0.00,meteohub,2013-03-27 06:16:00,
2013-03-26 23:21:00,43.5,41.7,29.84,North,0,0.0,0.0,93,0.00,,,0.00,meteohub,2013-03-27 06:21:00,
2013-03-26 23:26:00,43.5,41.9,29.83,North,0,0.0,0.0,94,0.00,,,0.00,meteohub,2013-03-27 06:26:00,
2013-03-26 23:31:00,43.5,41.9,29.83,North,0,0.0,0.0,94,0.00,,,0.00,meteohub,2013-03-27 06:31:00,
2013-03-26 23:36:00,43.3,41.5,29.83,North,0,0.0,0.0,93,0.00,,,0.00,meteohub,2013-03-27 06:36:00,
2013-03-26 23:41:00,43.2,41.4,29.83,North,0,0.0,0.0,93,0.00,,,0.00,meteohub,2013-03-27 06:41:00,
2013-03-26 23:46:00,43.2,41.4,29.83,North,0,0.0,0.0,93,0.00,,,0.00,meteohub,2013-03-27 06:46:00,
2013-03-26 23:52:00,43.0,41.2,29.83,North,0,0.0,0.0,93,0.00,,,0.00,meteohub,2013-03-27 06:52:00,
2013-03-26 23:57:00,43.0,41.4,29.83,North,0,0.0,0.0,94,0.00,,,0.00,meteohub,2013-03-27 06:57:00,